sensor_id;sensor_type;location;lat;lon;timestamp;temperature;humidity
18454;DHT22;9356;52.202;20.950;2022-09-30T00:00:19;9.00;99.90
18454;DHT22;9356;52.202;20.950;2022-09-30T00:01:27;9.80;99.90
18454;DHT22;9356;52.202;20.950;2022-09-30T00:02:33;9.10;99.90
18454;DHT22;9356;52.202;20.950;2022-09-30T00:03:39;11.00;99.90
18454;DHT22;9356;52.202;20.950;2022-09-30T00:04:43;9.10;99.90
18454;DHT22;9356;52.202;20.950;2022-09-30T00:05:47;9.10;99.90
18454;DHT22;9356;52.202;20.950;2022-09-30T00:06:58;9.10;99.90
18454;DHT22;9356;52.202;20.950;2022-09-30T00:08:06;9.10;99.90
18454;DHT22;9356;52.202;20.950;2022-09-30T00:09:11;9.30;99.90
18454;DHT22;9356;52.202;20.950;2022-09-30T00:10:17;9.20;99.90
18454;DHT22;9356;52.202;20.950;2022-09-30T00:11:31;9.20;99.90
18454;DHT22;9356;52.202;20.950;2022-09-30T00:13:52;9.20;99.90
18454;DHT22;9356;52.202;20.950;2022-09-30T00:15:01;9.20;99.90
18454;DHT22;9356;52.202;20.950;2022-09-30T00:16:11;9.60;99.90
18454;DHT22;9356;52.202;20.950;2022-09-30T00:17:16;9.20;99.90
18454;DHT22;9356;52.202;20.950;2022-09-30T00:19:44;9.20;99.90
18454;DHT22;9356;52.202;20.950;2022-09-30T00:20:51;9.20;99.90
18454;DHT22;9356;52.202;20.950;2022-09-30T00:21:54;9.50;99.90
18454;DHT22;9356;52.202;20.950;2022-09-30T00:23:09;9.20;99.90
18454;DHT22;9356;52.202;20.950;2022-09-30T00:24:13;9.20;99.90
18454;DHT22;9356;52.202;20.950;2022-09-30T00:25:19;9.10;99.90
18454;DHT22;9356;52.202;20.950;2022-09-30T00:26:29;9.20;99.90
18454;DHT22;9356;52.202;20.950;2022-09-30T00:27:36;9.10;99.90
18454;DHT22;9356;52.202;20.950;2022-09-30T00:28:39;10.50;99.90
18454;DHT22;9356;52.202;20.950;2022-09-30T00:29:47;9.20;99.90
18454;DHT22;9356;52.202;20.950;2022-09-30T00:30:52;9.20;99.90
18454;DHT22;9356;52.202;20.950;2022-09-30T00:32:00;9.20;99.90
18454;DHT22;9356;52.202;20.950;2022-09-30T00:33:06;9.20;99.90
18454;DHT22;9356;52.202;20.950;2022-09-30T00:34:09;9.10;99.90
18454;DHT22;9356;52.202;20.950;2022-09-30T00:35:14;9.10;99.90
18454;DHT22;9356;52.202;20.950;2022-09-30T00:36:26;9.20;99.90
18454;DHT22;9356;52.202;20.950;2022-09-30T00:37:33;9.20;99.90
18454;DHT22;9356;52.202;20.950;2022-09-30T00:38:40;10.90;99.90
18454;DHT22;9356;52.202;20.950;2022-09-30T00:39:46;9.10;99.90
18454;DHT22;9356;52.202;20.950;2022-09-30T00:40:52;9.20;99.90
18454;DHT22;9356;52.202;20.950;2022-09-30T00:42:02;9.20;99.90
18454;DHT22;9356;52.202;20.950;2022-09-30T00:43:11;9.10;99.90
18454;DHT22;9356;52.202;20.950;2022-09-30T00:44:53;9.10;99.90
18454;DHT22;9356;52.202;20.950;2022-09-30T00:46:03;9.10;99.90
18454;DHT22;9356;52.202;20.950;2022-09-30T00:47:30;9.10;99.90
18454;DHT22;9356;52.202;20.950;2022-09-30T00:48:42;9.10;99.90
18454;DHT22;9356;52.202;20.950;2022-09-30T00:49:52;9.00;99.90
18454;DHT22;9356;52.202;20.950;2022-09-30T00:51:01;9.60;99.90
18454;DHT22;9356;52.202;20.950;2022-09-30T00:52:19;9.00;99.90
18454;DHT22;9356;52.202;20.950;2022-09-30T00:53:28;9.00;99.90
18454;DHT22;9356;52.202;20.950;2022-09-30T00:55:51;9.00;99.90
18454;DHT22;9356;52.202;20.950;2022-09-30T00:57:00;9.00;99.90
18454;DHT22;9356;52.202;20.950;2022-09-30T00:58:08;9.00;99.90
18454;DHT22;9356;52.202;20.950;2022-09-30T00:59:31;9.00;99.90
18454;DHT22;9356;52.202;20.950;2022-09-30T01:01:48;9.00;99.90
18454;DHT22;9356;52.202;20.950;2022-09-30T01:02:54;9.70;99.90
18454;DHT22;9356;52.202;20.950;2022-09-30T01:04:04;9.00;99.90
18454;DHT22;9356;52.202;20.950;2022-09-30T01:05:15;9.00;99.90
18454;DHT22;9356;52.202;20.950;2022-09-30T01:06:24;8.90;99.90
18454;DHT22;9356;52.202;20.950;2022-09-30T01:07:28;8.90;99.90
18454;DHT22;9356;52.202;20.950;2022-09-30T01:09:40;8.90;99.90
18454;DHT22;9356;52.202;20.950;2022-09-30T01:10:50;8.90;99.90
18454;DHT22;9356;52.202;20.950;2022-09-30T01:11:54;8.80;99.90
18454;DHT22;9356;52.202;20.950;2022-09-30T01:13:07;8.90;99.90
18454;DHT22;9356;52.202;20.950;2022-09-30T01:14:19;8.80;99.90
18454;DHT22;9356;52.202;20.950;2022-09-30T01:15:41;9.50;99.90
18454;DHT22;9356;52.202;20.950;2022-09-30T01:16:55;8.80;99.90
18454;DHT22;9356;52.202;20.950;2022-09-30T01:18:23;9.40;99.90
18454;DHT22;9356;52.202;20.950;2022-09-30T01:21:59;8.80;99.90
18454;DHT22;9356;52.202;20.950;2022-09-30T01:25:23;8.70;99.90
18454;DHT22;9356;52.202;20.950;2022-09-30T01:26:59;8.60;99.90
18454;DHT22;9356;52.202;20.950;2022-09-30T01:30:13;8.60;99.90
18454;DHT22;9356;52.202;20.950;2022-09-30T01:31:43;8.60;99.90
18454;DHT22;9356;52.202;20.950;2022-09-30T01:33:11;8.60;99.90
18454;DHT22;9356;52.202;20.950;2022-09-30T01:34:39;8.60;99.90
18454;DHT22;9356;52.202;20.950;2022-09-30T01:36:24;8.60;99.90
18454;DHT22;9356;52.202;20.950;2022-09-30T01:37:47;8.60;99.90
18454;DHT22;9356;52.202;20.950;2022-09-30T01:39:10;8.60;99.90
18454;DHT22;9356;52.202;20.950;2022-09-30T01:40:27;8.50;99.90
18454;DHT22;9356;52.202;20.950;2022-09-30T01:41:44;8.50;99.90
18454;DHT22;9356;52.202;20.950;2022-09-30T01:43:06;9.80;99.90
18454;DHT22;9356;52.202;20.950;2022-09-30T01:44:36;8.50;99.90
18454;DHT22;9356;52.202;20.950;2022-09-30T01:47:10;8.60;99.90
18454;DHT22;9356;52.202;20.950;2022-09-30T01:48:30;8.60;99.90
18454;DHT22;9356;52.202;20.950;2022-09-30T01:49:55;8.60;99.90
18454;DHT22;9356;52.202;20.950;2022-09-30T01:51:07;8.60;99.90
18454;DHT22;9356;52.202;20.950;2022-09-30T01:52:21;8.60;99.90
18454;DHT22;9356;52.202;20.950;2022-09-30T01:54:47;8.60;99.90
18454;DHT22;9356;52.202;20.950;2022-09-30T01:56:15;10.40;99.90
18454;DHT22;9356;52.202;20.950;2022-09-30T01:57:25;8.60;99.90
18454;DHT22;9356;52.202;20.950;2022-09-30T01:59:49;8.60;99.90
18454;DHT22;9356;52.202;20.950;2022-09-30T02:01:04;8.60;99.90
18454;DHT22;9356;52.202;20.950;2022-09-30T02:02:19;8.50;99.90
18454;DHT22;9356;52.202;20.950;2022-09-30T02:03:31;8.50;99.90
18454;DHT22;9356;52.202;20.950;2022-09-30T02:05:53;8.50;99.90
18454;DHT22;9356;52.202;20.950;2022-09-30T02:07:11;8.50;99.90
18454;DHT22;9356;52.202;20.950;2022-09-30T02:08:22;8.50;99.90
18454;DHT22;9356;52.202;20.950;2022-09-30T02:09:49;8.50;99.90
18454;DHT22;9356;52.202;20.950;2022-09-30T02:10:59;8.50;99.90
18454;DHT22;9356;52.202;20.950;2022-09-30T02:12:11;8.50;99.90
18454;DHT22;9356;52.202;20.950;2022-09-30T02:13:24;8.50;99.90
18454;DHT22;9356;52.202;20.950;2022-09-30T02:14:39;8.40;99.90
18454;DHT22;9356;52.202;20.950;2022-09-30T02:16:00;8.40;99.90
18454;DHT22;9356;52.202;20.950;2022-09-30T02:17:22;8.40;99.90
18454;DHT22;9356;52.202;20.950;2022-09-30T02:18:39;8.20;99.90
18454;DHT22;9356;52.202;20.950;2022-09-30T02:19:48;8.90;99.90
18454;DHT22;9356;52.202;20.950;2022-09-30T02:21:02;8.40;99.90
18454;DHT22;9356;52.202;20.950;2022-09-30T02:22:15;8.40;99.90
18454;DHT22;9356;52.202;20.950;2022-09-30T02:23:29;8.40;99.90
18454;DHT22;9356;52.202;20.950;2022-09-30T02:24:47;8.40;99.90
18454;DHT22;9356;52.202;20.950;2022-09-30T02:26:02;10.40;99.90
18454;DHT22;9356;52.202;20.950;2022-09-30T02:27:17;8.40;99.90
18454;DHT22;9356;52.202;20.950;2022-09-30T02:28:27;8.40;99.90
18454;DHT22;9356;52.202;20.950;2022-09-30T02:29:38;8.30;99.90
18454;DHT22;9356;52.202;20.950;2022-09-30T02:30:49;8.90;99.90
18454;DHT22;9356;52.202;20.950;2022-09-30T02:32:06;8.30;99.90
18454;DHT22;9356;52.202;20.950;2022-09-30T02:33:27;8.30;99.90
18454;DHT22;9356;52.202;20.950;2022-09-30T02:34:48;8.30;99.90
18454;DHT22;9356;52.202;20.950;2022-09-30T02:36:00;9.40;99.90
18454;DHT22;9356;52.202;20.950;2022-09-30T02:37:13;8.20;99.90
18454;DHT22;9356;52.202;20.950;2022-09-30T02:38:31;8.20;99.90
18454;DHT22;9356;52.202;20.950;2022-09-30T02:40:57;8.20;99.90
18454;DHT22;9356;52.202;20.950;2022-09-30T02:42:13;8.10;99.90
18454;DHT22;9356;52.202;20.950;2022-09-30T02:43:32;8.10;99.90
18454;DHT22;9356;52.202;20.950;2022-09-30T02:44:40;8.00;99.90
18454;DHT22;9356;52.202;20.950;2022-09-30T02:45:55;8.00;99.90
18454;DHT22;9356;52.202;20.950;2022-09-30T02:47:12;8.00;99.90
18454;DHT22;9356;52.202;20.950;2022-09-30T02:48:36;8.10;99.90
18454;DHT22;9356;52.202;20.950;2022-09-30T02:49:48;8.00;99.90
18454;DHT22;9356;52.202;20.950;2022-09-30T02:51:02;8.00;99.90
18454;DHT22;9356;52.202;20.950;2022-09-30T02:52:23;7.90;99.90
18454;DHT22;9356;52.202;20.950;2022-09-30T02:54:46;7.90;99.90
18454;DHT22;9356;52.202;20.950;2022-09-30T02:56:18;10.70;99.90
18454;DHT22;9356;52.202;20.950;2022-09-30T02:57:38;7.90;99.90
18454;DHT22;9356;52.202;20.950;2022-09-30T02:58:54;7.80;99.90
18454;DHT22;9356;52.202;20.950;2022-09-30T03:00:04;7.80;99.90
18454;DHT22;9356;52.202;20.950;2022-09-30T03:01:16;7.80;99.90
18454;DHT22;9356;52.202;20.950;2022-09-30T03:02:30;9.00;99.90
18454;DHT22;9356;52.202;20.950;2022-09-30T03:03:40;7.80;99.90
18454;DHT22;9356;52.202;20.950;2022-09-30T03:04:52;9.90;99.90
18454;DHT22;9356;52.202;20.950;2022-09-30T03:05:58;7.80;99.90
18454;DHT22;9356;52.202;20.950;2022-09-30T03:07:05;7.80;99.90
18454;DHT22;9356;52.202;20.950;2022-09-30T03:08:17;7.80;99.90
18454;DHT22;9356;52.202;20.950;2022-09-30T03:09:24;7.80;99.90
18454;DHT22;9356;52.202;20.950;2022-09-30T03:10:38;7.80;99.90
18454;DHT22;9356;52.202;20.950;2022-09-30T03:11:48;7.80;99.90
18454;DHT22;9356;52.202;20.950;2022-09-30T03:13:20;7.80;99.90
18454;DHT22;9356;52.202;20.950;2022-09-30T03:14:49;7.70;99.90
18454;DHT22;9356;52.202;20.950;2022-09-30T03:16:18;7.70;99.90
18454;DHT22;9356;52.202;20.950;2022-09-30T03:17:36;7.70;99.90
18454;DHT22;9356;52.202;20.950;2022-09-30T03:19:07;7.70;99.90
18454;DHT22;9356;52.202;20.950;2022-09-30T03:22:07;7.70;99.90
18454;DHT22;9356;52.202;20.950;2022-09-30T03:23:45;7.70;99.90
18454;DHT22;9356;52.202;20.950;2022-09-30T03:25:24;7.70;99.90
18454;DHT22;9356;52.202;20.950;2022-09-30T03:26:54;7.60;99.90
18454;DHT22;9356;52.202;20.950;2022-09-30T03:28:16;7.60;99.90
18454;DHT22;9356;52.202;20.950;2022-09-30T03:29:34;7.60;99.90
18454;DHT22;9356;52.202;20.950;2022-09-30T03:31:02;7.70;99.90
18454;DHT22;9356;52.202;20.950;2022-09-30T03:32:21;7.60;99.90
18454;DHT22;9356;52.202;20.950;2022-09-30T03:33:40;7.60;99.90
18454;DHT22;9356;52.202;20.950;2022-09-30T03:35:12;7.60;99.90
18454;DHT22;9356;52.202;20.950;2022-09-30T03:36:26;7.60;99.90
18454;DHT22;9356;52.202;20.950;2022-09-30T03:37:49;7.60;99.90
18454;DHT22;9356;52.202;20.950;2022-09-30T03:39:02;7.60;99.90
18454;DHT22;9356;52.202;20.950;2022-09-30T03:40:16;7.60;99.90
18454;DHT22;9356;52.202;20.950;2022-09-30T03:41:31;7.60;99.90
18454;DHT22;9356;52.202;20.950;2022-09-30T03:42:51;7.60;99.90
18454;DHT22;9356;52.202;20.950;2022-09-30T03:44:14;7.60;99.90
18454;DHT22;9356;52.202;20.950;2022-09-30T03:45:34;7.60;99.90
18454;DHT22;9356;52.202;20.950;2022-09-30T03:46:57;7.60;99.90
18454;DHT22;9356;52.202;20.950;2022-09-30T03:48:21;7.60;99.90
18454;DHT22;9356;52.202;20.950;2022-09-30T03:49:33;7.60;99.90
18454;DHT22;9356;52.202;20.950;2022-09-30T03:50:59;7.60;99.90
18454;DHT22;9356;52.202;20.950;2022-09-30T03:52:09;7.60;99.90
18454;DHT22;9356;52.202;20.950;2022-09-30T03:53:19;7.60;99.90
18454;DHT22;9356;52.202;20.950;2022-09-30T03:54:30;7.60;99.90
18454;DHT22;9356;52.202;20.950;2022-09-30T03:55:45;7.60;99.90
18454;DHT22;9356;52.202;20.950;2022-09-30T03:56:53;7.60;99.90
18454;DHT22;9356;52.202;20.950;2022-09-30T03:58:08;7.60;99.90
18454;DHT22;9356;52.202;20.950;2022-09-30T03:59:29;7.70;99.90
18454;DHT22;9356;52.202;20.950;2022-09-30T04:00:51;7.60;99.90
18454;DHT22;9356;52.202;20.950;2022-09-30T04:01:59;7.60;99.90
18454;DHT22;9356;52.202;20.950;2022-09-30T04:03:07;7.50;99.90
18454;DHT22;9356;52.202;20.950;2022-09-30T04:04:13;7.50;99.90
18454;DHT22;9356;52.202;20.950;2022-09-30T04:05:19;7.50;99.90
18454;DHT22;9356;52.202;20.950;2022-09-30T04:06:27;7.50;99.90
18454;DHT22;9356;52.202;20.950;2022-09-30T04:07:45;7.60;99.90
18454;DHT22;9356;52.202;20.950;2022-09-30T04:08:53;7.50;99.90
18454;DHT22;9356;52.202;20.950;2022-09-30T04:10:11;7.60;99.90
18454;DHT22;9356;52.202;20.950;2022-09-30T04:11:17;7.60;99.90
18454;DHT22;9356;52.202;20.950;2022-09-30T04:12:20;7.60;99.90
18454;DHT22;9356;52.202;20.950;2022-09-30T04:13:26;7.60;99.90
18454;DHT22;9356;52.202;20.950;2022-09-30T04:14:35;7.60;99.90
18454;DHT22;9356;52.202;20.950;2022-09-30T04:15:40;7.60;99.90
18454;DHT22;9356;52.202;20.950;2022-09-30T04:16:47;7.60;99.90
18454;DHT22;9356;52.202;20.950;2022-09-30T04:17:57;7.60;99.90
18454;DHT22;9356;52.202;20.950;2022-09-30T04:19:02;7.60;99.90
18454;DHT22;9356;52.202;20.950;2022-09-30T04:20:14;7.50;99.90
18454;DHT22;9356;52.202;20.950;2022-09-30T04:21:18;7.60;99.90
18454;DHT22;9356;52.202;20.950;2022-09-30T04:22:44;7.60;99.90
18454;DHT22;9356;52.202;20.950;2022-09-30T04:23:50;9.80;99.90
18454;DHT22;9356;52.202;20.950;2022-09-30T04:24:56;7.60;99.90
18454;DHT22;9356;52.202;20.950;2022-09-30T04:26:01;7.70;99.90
18454;DHT22;9356;52.202;20.950;2022-09-30T04:27:08;7.60;99.90
18454;DHT22;9356;52.202;20.950;2022-09-30T04:28:12;7.60;99.90
18454;DHT22;9356;52.202;20.950;2022-09-30T04:29:20;7.60;99.90
18454;DHT22;9356;52.202;20.950;2022-09-30T04:30:27;7.60;99.90
18454;DHT22;9356;52.202;20.950;2022-09-30T04:32:52;7.60;99.90
18454;DHT22;9356;52.202;20.950;2022-09-30T04:34:04;7.60;99.90
18454;DHT22;9356;52.202;20.950;2022-09-30T04:35:10;7.60;99.90
18454;DHT22;9356;52.202;20.950;2022-09-30T04:36:19;7.60;99.90
18454;DHT22;9356;52.202;20.950;2022-09-30T04:37:22;7.60;99.90
18454;DHT22;9356;52.202;20.950;2022-09-30T04:38:48;7.60;99.90
18454;DHT22;9356;52.202;20.950;2022-09-30T04:39:55;7.60;99.90
18454;DHT22;9356;52.202;20.950;2022-09-30T04:41:04;7.60;99.90
18454;DHT22;9356;52.202;20.950;2022-09-30T04:42:13;7.60;99.90
18454;DHT22;9356;52.202;20.950;2022-09-30T04:43:41;7.60;99.90
18454;DHT22;9356;52.202;20.950;2022-09-30T04:44:50;10.40;99.90
18454;DHT22;9356;52.202;20.950;2022-09-30T04:46:20;7.90;99.90
18454;DHT22;9356;52.202;20.950;2022-09-30T04:49:07;7.60;99.90
18454;DHT22;9356;52.202;20.950;2022-09-30T04:50:12;7.60;99.90
18454;DHT22;9356;52.202;20.950;2022-09-30T04:51:32;7.60;99.90
18454;DHT22;9356;52.202;20.950;2022-09-30T04:52:51;7.50;99.90
18454;DHT22;9356;52.202;20.950;2022-09-30T04:53:59;7.60;99.90
18454;DHT22;9356;52.202;20.950;2022-09-30T04:55:12;7.60;99.90
18454;DHT22;9356;52.202;20.950;2022-09-30T04:56:24;7.60;99.90
18454;DHT22;9356;52.202;20.950;2022-09-30T04:57:35;7.60;99.90
18454;DHT22;9356;52.202;20.950;2022-09-30T04:59:02;7.60;99.90
18454;DHT22;9356;52.202;20.950;2022-09-30T05:00:22;7.60;99.90
18454;DHT22;9356;52.202;20.950;2022-09-30T05:01:31;7.60;99.90
18454;DHT22;9356;52.202;20.950;2022-09-30T05:02:51;7.70;99.90
18454;DHT22;9356;52.202;20.950;2022-09-30T05:04:07;7.70;99.90
18454;DHT22;9356;52.202;20.950;2022-09-30T05:05:22;7.70;99.90
18454;DHT22;9356;52.202;20.950;2022-09-30T05:06:34;7.70;99.90
18454;DHT22;9356;52.202;20.950;2022-09-30T05:07:59;7.70;99.90
18454;DHT22;9356;52.202;20.950;2022-09-30T05:09:13;7.70;99.90
18454;DHT22;9356;52.202;20.950;2022-09-30T05:10:31;7.70;99.90
18454;DHT22;9356;52.202;20.950;2022-09-30T05:11:37;7.80;99.90
18454;DHT22;9356;52.202;20.950;2022-09-30T05:12:49;8.70;99.90
18454;DHT22;9356;52.202;20.950;2022-09-30T05:14:26;7.80;99.90
18454;DHT22;9356;52.202;20.950;2022-09-30T05:15:42;7.80;99.90
18454;DHT22;9356;52.202;20.950;2022-09-30T05:16:53;7.80;99.90
18454;DHT22;9356;52.202;20.950;2022-09-30T05:18:04;7.80;99.90
18454;DHT22;9356;52.202;20.950;2022-09-30T05:19:20;8.00;99.90
18454;DHT22;9356;52.202;20.950;2022-09-30T05:20:41;7.80;99.90
18454;DHT22;9356;52.202;20.950;2022-09-30T05:22:01;8.10;99.90
18454;DHT22;9356;52.202;20.950;2022-09-30T05:23:08;7.70;99.90
18454;DHT22;9356;52.202;20.950;2022-09-30T05:24:18;7.70;99.90
18454;DHT22;9356;52.202;20.950;2022-09-30T05:25:28;7.70;99.90
18454;DHT22;9356;52.202;20.950;2022-09-30T05:27:55;7.70;99.90
18454;DHT22;9356;52.202;20.950;2022-09-30T05:29:03;7.70;99.90
18454;DHT22;9356;52.202;20.950;2022-09-30T05:30:16;7.60;99.90
18454;DHT22;9356;52.202;20.950;2022-09-30T05:31:20;7.60;99.90
18454;DHT22;9356;52.202;20.950;2022-09-30T05:32:26;7.60;99.90
18454;DHT22;9356;52.202;20.950;2022-09-30T05:33:49;8.00;99.90
18454;DHT22;9356;52.202;20.950;2022-09-30T05:35:03;10.40;99.90
18454;DHT22;9356;52.202;20.950;2022-09-30T05:36:13;7.60;99.90
18454;DHT22;9356;52.202;20.950;2022-09-30T05:37:22;7.60;99.90
18454;DHT22;9356;52.202;20.950;2022-09-30T05:39:58;7.70;99.90
18454;DHT22;9356;52.202;20.950;2022-09-30T05:41:09;7.70;99.90
18454;DHT22;9356;52.202;20.950;2022-09-30T05:42:37;7.70;99.90
18454;DHT22;9356;52.202;20.950;2022-09-30T05:44:04;7.70;99.90
18454;DHT22;9356;52.202;20.950;2022-09-30T05:45:30;7.70;99.90
18454;DHT22;9356;52.202;20.950;2022-09-30T05:46:43;7.70;99.90
18454;DHT22;9356;52.202;20.950;2022-09-30T05:47:53;7.80;99.90
18454;DHT22;9356;52.202;20.950;2022-09-30T05:49:11;8.80;99.90
18454;DHT22;9356;52.202;20.950;2022-09-30T05:50:40;7.80;99.90
18454;DHT22;9356;52.202;20.950;2022-09-30T05:52:02;8.30;99.90
18454;DHT22;9356;52.202;20.950;2022-09-30T05:53:08;7.90;99.90
18454;DHT22;9356;52.202;20.950;2022-09-30T05:54:14;7.90;99.90
18454;DHT22;9356;52.202;20.950;2022-09-30T05:55:23;7.90;99.90
18454;DHT22;9356;52.202;20.950;2022-09-30T05:56:30;8.00;99.90
18454;DHT22;9356;52.202;20.950;2022-09-30T05:57:40;8.00;99.90
18454;DHT22;9356;52.202;20.950;2022-09-30T05:59:11;9.10;99.90
18454;DHT22;9356;52.202;20.950;2022-09-30T06:00:35;8.50;99.90
18454;DHT22;9356;52.202;20.950;2022-09-30T06:01:46;8.10;99.90
18454;DHT22;9356;52.202;20.950;2022-09-30T06:02:57;8.10;99.90
18454;DHT22;9356;52.202;20.950;2022-09-30T06:04:04;8.10;99.90
18454;DHT22;9356;52.202;20.950;2022-09-30T06:05:27;8.10;99.90
18454;DHT22;9356;52.202;20.950;2022-09-30T06:07:50;8.10;99.90
18454;DHT22;9356;52.202;20.950;2022-09-30T06:09:14;8.10;99.90
18454;DHT22;9356;52.202;20.950;2022-09-30T06:10:29;8.20;99.90
18454;DHT22;9356;52.202;20.950;2022-09-30T06:11:43;8.30;99.90
18454;DHT22;9356;52.202;20.950;2022-09-30T06:13:10;8.40;99.90
18454;DHT22;9356;52.202;20.950;2022-09-30T06:14:23;8.40;99.90
18454;DHT22;9356;52.202;20.950;2022-09-30T06:15:31;8.50;99.90
18454;DHT22;9356;52.202;20.950;2022-09-30T06:16:44;8.60;99.90
18454;DHT22;9356;52.202;20.950;2022-09-30T06:17:53;8.70;99.90
18454;DHT22;9356;52.202;20.950;2022-09-30T06:18:59;8.90;99.90
18454;DHT22;9356;52.202;20.950;2022-09-30T06:20:04;9.10;99.90
18454;DHT22;9356;52.202;20.950;2022-09-30T06:21:13;9.20;99.90
18454;DHT22;9356;52.202;20.950;2022-09-30T06:22:19;9.30;99.90
18454;DHT22;9356;52.202;20.950;2022-09-30T06:23:47;9.40;99.90
18454;DHT22;9356;52.202;20.950;2022-09-30T06:24:52;9.50;99.90
18454;DHT22;9356;52.202;20.950;2022-09-30T06:26:11;9.40;99.90
18454;DHT22;9356;52.202;20.950;2022-09-30T06:27:17;9.50;99.90
18454;DHT22;9356;52.202;20.950;2022-09-30T06:28:27;9.40;99.90
18454;DHT22;9356;52.202;20.950;2022-09-30T06:29:39;9.40;99.90
18454;DHT22;9356;52.202;20.950;2022-09-30T06:30:53;11.30;99.90
18454;DHT22;9356;52.202;20.950;2022-09-30T06:32:03;9.40;99.90
18454;DHT22;9356;52.202;20.950;2022-09-30T06:33:24;9.40;99.90
18454;DHT22;9356;52.202;20.950;2022-09-30T06:34:41;9.30;99.90
18454;DHT22;9356;52.202;20.950;2022-09-30T06:35:45;11.10;99.90
18454;DHT22;9356;52.202;20.950;2022-09-30T06:36:50;9.20;99.90
18454;DHT22;9356;52.202;20.950;2022-09-30T06:37:58;9.20;99.90
18454;DHT22;9356;52.202;20.950;2022-09-30T06:39:03;9.20;99.90
18454;DHT22;9356;52.202;20.950;2022-09-30T06:40:17;9.20;99.90
18454;DHT22;9356;52.202;20.950;2022-09-30T06:41:27;9.30;99.90
18454;DHT22;9356;52.202;20.950;2022-09-30T06:42:36;9.20;99.90
18454;DHT22;9356;52.202;20.950;2022-09-30T06:43:40;9.30;99.90
18454;DHT22;9356;52.202;20.950;2022-09-30T06:45:09;11.20;99.90
18454;DHT22;9356;52.202;20.950;2022-09-30T06:46:31;9.30;99.90
18454;DHT22;9356;52.202;20.950;2022-09-30T06:48:08;9.30;99.90
18454;DHT22;9356;52.202;20.950;2022-09-30T06:49:41;9.40;99.90
18454;DHT22;9356;52.202;20.950;2022-09-30T06:50:57;9.40;99.90
18454;DHT22;9356;52.202;20.950;2022-09-30T06:52:13;9.40;99.90
18454;DHT22;9356;52.202;20.950;2022-09-30T06:53:25;9.50;99.90
18454;DHT22;9356;52.202;20.950;2022-09-30T06:54:49;9.70;99.90
18454;DHT22;9356;52.202;20.950;2022-09-30T06:55:57;9.90;99.90
18454;DHT22;9356;52.202;20.950;2022-09-30T06:57:08;10.30;99.90
18454;DHT22;9356;52.202;20.950;2022-09-30T06:58:23;10.20;99.90
18454;DHT22;9356;52.202;20.950;2022-09-30T06:59:40;10.30;99.90
18454;DHT22;9356;52.202;20.950;2022-09-30T07:00:55;10.50;99.90
18454;DHT22;9356;52.202;20.950;2022-09-30T07:02:03;10.60;99.90
18454;DHT22;9356;52.202;20.950;2022-09-30T07:03:34;10.60;99.90
18454;DHT22;9356;52.202;20.950;2022-09-30T07:04:42;10.70;99.90
18454;DHT22;9356;52.202;20.950;2022-09-30T07:05:55;10.70;99.90
18454;DHT22;9356;52.202;20.950;2022-09-30T07:07:18;10.70;99.90
18454;DHT22;9356;52.202;20.950;2022-09-30T07:08:37;10.70;99.30
18454;DHT22;9356;52.202;20.950;2022-09-30T07:09:44;10.60;99.80
18454;DHT22;9356;52.202;20.950;2022-09-30T07:10:49;10.60;99.90
18454;DHT22;9356;52.202;20.950;2022-09-30T07:11:55;10.50;99.80
18454;DHT22;9356;52.202;20.950;2022-09-30T07:13:09;10.30;99.60
18454;DHT22;9356;52.202;20.950;2022-09-30T07:14:16;10.20;99.70
18454;DHT22;9356;52.202;20.950;2022-09-30T07:15:35;10.10;99.90
18454;DHT22;9356;52.202;20.950;2022-09-30T07:16:43;10.00;99.90
18454;DHT22;9356;52.202;20.950;2022-09-30T07:17:53;10.00;99.90
18454;DHT22;9356;52.202;20.950;2022-09-30T07:19:01;10.00;99.90
18454;DHT22;9356;52.202;20.950;2022-09-30T07:20:13;10.00;99.90
18454;DHT22;9356;52.202;20.950;2022-09-30T07:21:22;9.90;99.90
18454;DHT22;9356;52.202;20.950;2022-09-30T07:22:32;10.00;99.90
18454;DHT22;9356;52.202;20.950;2022-09-30T07:23:46;10.00;99.90
18454;DHT22;9356;52.202;20.950;2022-09-30T07:24:56;10.00;99.90
18454;DHT22;9356;52.202;20.950;2022-09-30T07:26:04;10.10;99.90
18454;DHT22;9356;52.202;20.950;2022-09-30T07:27:14;10.10;99.90
18454;DHT22;9356;52.202;20.950;2022-09-30T07:28:24;10.20;99.90
18454;DHT22;9356;52.202;20.950;2022-09-30T07:29:48;10.30;99.90
18454;DHT22;9356;52.202;20.950;2022-09-30T07:31:16;10.50;99.90
18454;DHT22;9356;52.202;20.950;2022-09-30T07:32:44;10.70;99.90
18454;DHT22;9356;52.202;20.950;2022-09-30T07:33:54;10.70;99.80
18454;DHT22;9356;52.202;20.950;2022-09-30T07:35:00;10.80;99.70
18454;DHT22;9356;52.202;20.950;2022-09-30T07:36:10;10.80;99.70
18454;DHT22;9356;52.202;20.950;2022-09-30T07:37:19;10.90;99.90
18454;DHT22;9356;52.202;20.950;2022-09-30T07:38:30;10.90;99.80
18454;DHT22;9356;52.202;20.950;2022-09-30T07:39:44;11.00;99.90
18454;DHT22;9356;52.202;20.950;2022-09-30T07:41:08;11.10;99.90
18454;DHT22;9356;52.202;20.950;2022-09-30T07:42:17;11.30;99.90
18454;DHT22;9356;52.202;20.950;2022-09-30T07:43:35;11.50;99.80
18454;DHT22;9356;52.202;20.950;2022-09-30T07:44:44;11.70;99.70
18454;DHT22;9356;52.202;20.950;2022-09-30T07:45:51;11.80;99.70
18454;DHT22;9356;52.202;20.950;2022-09-30T07:47:03;11.90;99.70
18454;DHT22;9356;52.202;20.950;2022-09-30T07:48:14;12.00;99.20
18454;DHT22;9356;52.202;20.950;2022-09-30T07:49:38;12.10;99.00
18454;DHT22;9356;52.202;20.950;2022-09-30T07:50:55;12.20;98.60
18454;DHT22;9356;52.202;20.950;2022-09-30T07:52:04;12.30;98.50
18454;DHT22;9356;52.202;20.950;2022-09-30T07:53:16;12.40;98.50
18454;DHT22;9356;52.202;20.950;2022-09-30T07:54:38;12.50;98.50
18454;DHT22;9356;52.202;20.950;2022-09-30T07:55:49;12.60;98.00
18454;DHT22;9356;52.202;20.950;2022-09-30T07:57:02;12.60;97.60
18454;DHT22;9356;52.202;20.950;2022-09-30T07:58:31;12.60;97.90
18454;DHT22;9356;52.202;20.950;2022-09-30T08:01:17;12.70;97.60
18454;DHT22;9356;52.202;20.950;2022-09-30T08:02:45;12.60;97.80
18454;DHT22;9356;52.202;20.950;2022-09-30T08:04:04;14.10;98.10
18454;DHT22;9356;52.202;20.950;2022-09-30T08:05:22;12.60;99.10
18454;DHT22;9356;52.202;20.950;2022-09-30T08:06:39;12.60;98.40
18454;DHT22;9356;52.202;20.950;2022-09-30T08:07:46;12.60;98.10
18454;DHT22;9356;52.202;20.950;2022-09-30T08:08:53;12.60;98.00
18454;DHT22;9356;52.202;20.950;2022-09-30T08:10:02;12.70;98.00
18454;DHT22;9356;52.202;20.950;2022-09-30T08:11:10;12.60;97.90
18454;DHT22;9356;52.202;20.950;2022-09-30T08:12:38;12.70;98.10
18454;DHT22;9356;52.202;20.950;2022-09-30T08:13:51;12.70;98.10
18454;DHT22;9356;52.202;20.950;2022-09-30T08:15:06;12.70;97.80
18454;DHT22;9356;52.202;20.950;2022-09-30T08:16:16;12.60;97.90
18454;DHT22;9356;52.202;20.950;2022-09-30T08:17:30;12.60;97.90
18454;DHT22;9356;52.202;20.950;2022-09-30T08:18:53;12.60;97.80
18454;DHT22;9356;52.202;20.950;2022-09-30T08:20:18;12.60;98.00
18454;DHT22;9356;52.202;20.950;2022-09-30T08:23:37;12.50;97.90
18454;DHT22;9356;52.202;20.950;2022-09-30T08:24:49;12.50;98.10
18454;DHT22;9356;52.202;20.950;2022-09-30T08:26:00;13.40;98.70